Time;durP1;ratioP1;P1;durP2;ratioP2;P2;SDS_P1;SDS_P2;PMS_P1;PMS_P2;Temp;Humidity;BMP_temperature;BMP_pressure;BME280_temperature;BME280_humidity;BME280_pressure;Samples;Min_cycle;Max_cycle;Signal;HPM_P1;HPM_P2
2021/01/24 00:00:33;;;;;;;9.17;8.30;;;6.90;99.90;;;7.04;69.98;99339.63;5092900;28;20114;-74
2021/01/24 00:03:00;;;;;;;9.13;7.90;;;6.90;99.90;;;7.09;70.14;99354.44;5092964;28;20038;-70
2021/01/24 00:05:28;;;;;;;10.43;8.67;;;6.90;99.90;;;6.88;70.03;99330.22;5074535;28;20036;-73
2021/01/24 00:07:56;;;;;;;8.77;7.73;;;6.90;99.90;;;7.04;70.53;99363.28;5074937;28;20489;-76
2021/01/24 00:10:24;;;;;;;11.90;8.53;;;6.80;99.90;;;7.04;70.52;99361.53;5074873;28;20055;-70
2021/01/24 00:12:52;;;;;;;11.87;9.77;;;6.70;99.90;;;7.09;70.54;99366.69;5074719;28;20048;-77
2021/01/24 00:15:19;;;;;;;11.00;9.77;;;6.80;99.90;;;6.93;70.62;99363.41;5092687;28;20143;-71
2021/01/24 00:17:47;;;;;;;11.43;9.80;;;6.70;99.90;;;7.06;71.05;99350.97;5092496;28;20493;-70
2021/01/24 00:20:14;;;;;;;13.07;9.70;;;6.80;99.90;;;6.91;71.00;99359.09;5092463;28;20404;-70
2021/01/24 00:22:42;;;;;;;12.30;9.47;;;6.60;99.90;;;6.69;71.45;99353.25;5092793;28;20432;-71
2021/01/24 00:25:11;;;;;;;11.73;8.90;;;6.50;99.90;;;6.75;71.13;99366.31;5092526;28;20037;-70
2021/01/24 00:27:38;;;;;;;11.73;9.43;;;6.50;99.90;;;6.82;71.25;99359.19;5074538;28;20497;-70
2021/01/24 00:30:08;;;;;;;13.47;10.63;;;6.50;99.90;;;6.85;70.83;99362.66;5092512;28;20044;-70
2021/01/24 00:32:37;;;;;;;13.00;10.30;;;6.60;99.90;;;6.92;70.60;99358.19;5092518;28;20076;-70
2021/01/24 00:35:08;;;;;;;12.40;10.30;;;6.70;99.90;;;6.93;70.85;99354.69;5092377;28;20036;-70
2021/01/24 00:37:36;;;;;;;13.13;10.00;;;6.70;99.90;;;6.92;70.03;99366.06;5092542;28;20497;-71
2021/01/24 00:40:07;;;;;;;13.60;9.90;;;6.70;99.90;;;6.77;70.43;99358.41;5096264;28;20036;-70
2021/01/24 00:42:35;;;;;;;;;;;6.60;99.90;;;6.76;70.18;99362.78;5096805;28;20040;-70
2021/01/24 00:45:05;;;;;;;12.57;9.57;;;6.50;99.90;;;6.74;70.69;99367.19;5096242;28;19924;-71
2021/01/24 00:47:33;;;;;;;10.73;9.05;;;6.50;99.90;;;6.69;70.77;99371.66;5096228;28;20122;-71
2021/01/24 00:50:02;;;;;;;10.37;8.73;;;6.40;99.90;;;6.59;70.90;99371.78;5096213;28;20561;-70
2021/01/24 00:52:30;;;;;;;12.53;9.47;;;6.30;99.90;;;6.48;71.01;99371.03;5096006;28;20097;-70
2021/01/24 00:54:58;;;;;;;11.47;9.67;;;6.20;99.90;;;6.38;71.22;99372.91;5077673;28;20043;-71
2021/01/24 00:57:25;;;;;;;13.20;9.37;;;6.20;99.90;;;6.47;71.53;99372.78;5077685;28;20539;-70
2021/01/24 00:59:53;;;;;;;16.13;9.30;;;6.20;99.90;;;6.42;71.37;99368.50;5095689;28;20541;-70
2021/01/24 01:02:21;;;;;;;11.77;9.70;;;6.20;99.90;;;6.35;71.78;99373.81;5095660;28;20082;-70
2021/01/24 01:04:49;;;;;;;11.97;8.57;;;6.20;99.90;;;6.37;71.69;99377.28;5095521;28;20040;-70
2021/01/24 01:07:16;;;;;;;11.97;8.23;;;6.20;99.90;;;6.29;72.34;99379.13;5095583;28;20378;-70
2021/01/24 01:09:43;;;;;;;9.40;7.10;;;6.20;99.90;;;6.20;72.95;99383.59;5077390;28;20097;-70
2021/01/24 01:12:11;;;;;;;7.67;6.57;;;6.10;99.90;;;6.16;73.39;99390.66;5095529;28;20123;-70
2021/01/24 01:14:38;;;;;;;7.57;6.80;;;6.00;99.90;;;6.14;73.33;99389.81;5095037;28;20055;-70
2021/01/24 01:17:07;;;;;;;6.17;5.50;;;6.10;99.90;;;5.94;74.08;99386.50;5077240;28;20040;-70
2021/01/24 01:19:34;;;;;;;6.90;5.70;;;5.90;99.90;;;5.90;73.81;99382.19;5095486;28;20519;-70
2021/01/24 01:22:02;;;;;;;5.63;5.13;;;5.80;99.90;;;5.84;73.09;99353.41;5095421;28;20036;-70
2021/01/24 01:24:29;;;;;;;5.83;5.30;;;6.00;99.90;;;6.11;73.17;99395.09;5077082;28;20448;-70
2021/01/24 01:26:56;;;;;;;5.13;4.67;;;6.00;99.90;;;5.70;73.29;99380.59;5095182;28;20093;-70
2021/01/24 01:29:24;;;;;;;5.47;5.07;;;5.90;99.90;;;5.77;74.06;99403.28;5095091;28;20040;-70
2021/01/24 01:31:51;;;;;;;6.90;6.20;;;5.70;99.90;;;5.89;74.37;99409.31;5095375;28;20040;-70
2021/01/24 01:34:20;;;;;;;7.13;6.43;;;5.70;99.90;;;5.91;74.76;99412.78;5094947;28;20398;-70
2021/01/24 01:36:47;;;;;;;7.03;6.20;;;5.70;99.90;;;5.68;75.26;99406.84;5095119;28;20032;-70
2021/01/24 01:39:15;;;;;;;6.67;5.67;;;5.60;99.90;;;5.77;76.01;99421.63;5076839;28;20044;-70
2021/01/24 01:41:42;;;;;;;8.60;6.90;;;5.60;99.90;;;5.84;76.17;99432.09;5094855;28;20048;-70
2021/01/24 01:44:10;;;;;;;11.87;6.47;;;5.60;99.90;;;5.97;76.00;99422.34;5094943;28;20086;-70
2021/01/24 01:46:38;;;;;;;7.87;6.13;;;5.70;99.90;;;5.88;75.91;99418.06;5094852;28;20047;-70
2021/01/24 01:49:06;;;;;;;7.27;6.57;;;5.70;99.90;;;5.92;76.31;99425.00;5094481;28;20043;-70
2021/01/24 01:51:34;;;;;;;6.77;6.07;;;5.70;99.90;;;5.96;76.22;99437.22;5094224;28;20043;-70
2021/01/24 01:54:02;;;;;;;7.17;6.10;;;5.80;99.90;;;5.84;76.38;99437.34;5076606;28;20493;-70
2021/01/24 01:56:29;;;;;;;6.90;6.27;;;5.70;99.90;;;5.62;77.02;99429.59;5094555;28;20105;-70
2021/01/24 01:58:57;;;;;;;8.50;6.20;;;5.60;99.90;;;5.28;77.95;99429.84;5094579;28;20131;-70
2021/01/24 02:01:33;;;;;;;7.80;6.50;;;5.30;99.90;;;4.66;79.36;99363.88;5094617;28;20046;-70
2021/01/24 02:04:12;;;;;;;8.93;6.10;;;5.00;99.90;;;5.06;80.47;99441.34;5094625;28;20083;-70
2021/01/24 02:06:47;;;;;;;8.47;5.70;;;5.00;99.90;;;4.97;81.01;99437.91;5094480;28;20105;-70
2021/01/24 02:09:24;;;;;;;9.37;5.27;;;4.90;99.90;;;4.99;80.83;99436.16;5094434;28;20051;-71
2021/01/24 02:12:01;;;;;;;5.97;5.30;;;4.90;99.90;;;4.12;81.58;99322.25;5094882;28;20076;-71
2021/01/24 02:14:33;;;;;;;9.93;5.33;;;4.80;99.90;;;4.76;82.33;99443.25;5094326;28;20119;-71
2021/01/24 02:17:05;;;;;;;6.47;5.63;;;4.70;99.90;;;4.66;82.33;99446.78;5094271;28;20040;-70
2021/01/24 02:19:43;;;;;;;7.73;5.43;;;4.60;99.90;;;4.74;83.13;99460.72;5094213;28;20044;-72
2021/01/24 02:22:13;;;;;;;5.87;5.27;;;4.60;99.90;;;4.65;83.27;99450.25;5094198;28;20044;-70
2021/01/24 02:24:48;;;;;;;7.20;5.45;;;4.60;99.90;;;4.72;83.29;99463.34;5094166;28;20040;-70
2021/01/24 02:27:22;;;;;;;7.47;5.07;;;4.60;99.90;;;4.71;83.85;99465.94;5094070;28;20101;-70
2021/01/24 02:30:07;;;;;;;9.60;6.30;;;4.60;99.90;;;4.79;83.88;99472.03;5094037;28;20048;-70
2021/01/24 02:32:35;;;;;;;6.43;5.83;;;4.60;99.90;;;4.83;84.10;99469.41;5094033;28;20123;-70
2021/01/24 02:35:05;;;;;;;6.53;5.10;;;4.70;99.90;;;4.87;84.19;99488.59;5093917;28;20048;-70
2021/01/24 02:37:34;;;;;;;8.50;5.10;;;4.70;99.90;;;4.88;84.30;99479.88;5093854;28;20146;-70
2021/01/24 02:40:03;;;;;;;8.93;5.37;;;4.80;99.90;;;4.87;84.22;99494.72;5094032;28;20052;-70
2021/01/24 02:42:32;;;;;;;9.00;5.53;;;4.80;99.90;;;4.86;84.07;99492.09;5094005;28;20131;-71
2021/01/24 02:45:00;;;;;;;6.73;5.10;;;4.80;99.90;;;4.58;84.87;99497.44;5093833;28;20068;-71
2021/01/24 02:47:31;;;;;;;11.00;5.33;;;4.60;99.90;;;4.47;85.17;99504.41;5093686;28;20101;-70
2021/01/24 02:49:59;;;;;;;5.30;4.85;;;4.50;99.90;;;4.28;84.97;99502.72;5093628;28;20055;-70
2021/01/24 02:52:27;;;;;;;6.07;4.97;;;4.40;99.90;;;3.62;85.08;99403.38;5093522;28;20055;-70
2021/01/24 02:54:55;;;;;;;7.17;5.80;;;4.30;99.90;;;4.42;84.99;99521.00;5093502;28;20130;-71
2021/01/24 02:57:23;;;;;;;8.53;5.33;;;4.30;99.90;;;4.28;84.79;99518.41;5093503;28;20051;-71
2021/01/24 02:59:51;;;;;;;8.00;5.73;;;4.30;99.90;;;4.14;84.83;99524.53;5093500;28;20048;-70
2021/01/24 03:02:18;;;;;;;6.03;5.07;;;4.10;99.90;;;4.29;84.71;99530.63;5075227;28;20055;-71
2021/01/24 03:04:47;;;;;;;6.83;5.60;;;4.20;99.90;;;4.47;84.00;99534.97;5093344;28;20084;-72
2021/01/24 03:07:15;;;;;;;8.97;5.40;;;4.30;99.90;;;4.73;83.70;99548.88;5093239;28;20094;-71
2021/01/24 03:09:42;;;;;;;7.53;5.80;;;4.50;99.90;;;4.91;82.86;99543.59;5093364;28;20123;-71
2021/01/24 03:12:11;;;;;;;5.67;5.07;;;4.80;99.90;;;5.00;82.32;99556.66;5093380;28;20047;-70
2021/01/24 03:14:39;;;;;;;5.17;4.60;;;4.90;99.90;;;4.96;81.17;99536.56;5093304;28;20036;-71
2021/01/24 03:17:08;;;;;;;5.20;4.80;;;5.00;99.90;;;5.09;80.94;99540.03;5093243;28;20062;-71
2021/01/24 03:19:38;;;;;;;4.87;4.50;;;5.00;99.90;;;5.21;79.88;99556.56;5093074;28;20131;-70
2021/01/24 03:22:07;;;;;;;5.30;4.90;;;5.10;99.90;;;5.19;79.13;99546.97;5093087;28;20051;-70
2021/01/24 03:24:36;;;;;;;5.07;4.68;;;5.10;99.90;;;5.28;78.83;99549.56;5093073;28;20047;-70
2021/01/24 03:27:05;;;;;;;4.70;4.30;;;5.20;99.90;;;5.37;78.83;99549.50;5093030;28;20048;-70
2021/01/24 03:29:32;;;;;;;5.00;4.60;;;5.20;99.90;;;5.44;78.33;99546.84;5093009;28;20454;-70
2021/01/24 03:31:59;;;;;;;5.30;4.90;;;5.30;99.90;;;5.46;78.39;99549.44;5092991;28;20409;-70
2021/01/24 03:34:27;;;;;;;5.20;4.80;;;5.30;99.90;;;5.53;78.02;99552.91;5092866;28;20082;-70
2021/01/24 03:36:56;;;;;;;4.93;4.53;;;5.40;99.90;;;5.46;78.02;99538.97;5092867;28;20460;-70
2021/01/24 03:39:24;;;;;;;5.30;4.90;;;5.40;99.90;;;5.63;77.35;99554.63;5093149;28;20044;-70
2021/01/24 03:41:52;;;;;;;5.67;5.27;;;5.40;99.90;;;5.66;77.26;99571.19;5093105;28;20059;-70
2021/01/24 03:44:19;;;;;;;4.83;4.43;;;5.50;99.90;;;5.65;77.27;99560.72;5092738;28;20066;-70
2021/01/24 03:46:47;;;;;;;4.43;4.03;;;5.50;99.90;;;5.66;77.61;99573.81;5074575;28;20417;-70
2021/01/24 03:49:15;;;;;;;4.83;4.43;;;5.50;99.90;;;5.71;77.12;99572.03;5092795;28;20468;-70
2021/01/24 03:51:45;;;;;;;5.28;4.97;;;5.50;99.90;;;5.67;77.04;99575.56;5092774;28;20439;-70
2021/01/24 03:54:12;;;;;;;5.40;5.00;;;5.50;99.90;;;5.58;76.87;99565.13;5092758;28;20102;-71
2021/01/24 03:56:41;;;;;;;5.30;4.80;;;5.50;99.90;;;5.76;76.74;99572.91;5092783;28;20044;-70
2021/01/24 03:59:08;;;;;;;5.50;4.20;;;5.60;99.90;;;5.70;76.57;99554.56;5092681;28;20036;-70
2021/01/24 04:01:36;;;;;;;4.73;4.43;;;5.70;99.90;;;5.83;76.33;99573.72;5092532;28;20051;-70
2021/01/24 04:04:04;;;;;;;4.63;4.23;;;5.70;99.90;;;5.77;76.06;99566.75;5092881;28;20447;-71
2021/01/24 04:06:32;;;;;;;4.73;4.43;;;5.70;99.90;;;5.84;75.91;99579.00;5092717;28;20048;-70
2021/01/24 04:08:59;;;;;;;5.20;3.67;;;5.70;99.90;;;5.80;75.69;99574.63;5092577;28;20428;-71
2021/01/24 04:11:26;;;;;;;4.13;3.93;;;5.70;99.90;;;5.80;75.42;99579.88;5092578;28;20056;-71
2021/01/24 04:13:55;;;;;;;4.47;4.20;;;5.60;99.90;;;5.81;75.26;99583.34;5094767;28;20051;-70
2021/01/24 04:16:22;;;;;;;3.80;3.50;;;5.60;99.90;;;5.80;74.85;99585.13;5078712;28;20056;-72
2021/01/24 04:18:50;;;;;;;4.43;4.03;;;5.60;99.90;;;5.79;74.99;99585.13;5096537;28;20129;-70
2021/01/24 04:21:17;;;;;;;4.47;4.17;;;5.60;99.90;;;5.76;75.06;99585.13;5096444;28;20441;-71
2021/01/24 04:23:45;;;;;;;4.30;4.00;;;5.60;99.90;;;5.79;74.68;99595.63;5096427;28;20040;-70
2021/01/24 04:26:13;;;;;;;4.23;3.93;;;5.60;99.90;;;5.79;74.90;99587.75;5096238;28;20507;-70
2021/01/24 04:28:40;;;;;;;5.03;4.70;;;5.60;99.90;;;5.78;74.43;99589.50;5096306;28;20390;-70
2021/01/24 04:31:09;;;;;;;4.63;4.23;;;5.60;99.90;;;5.77;74.46;99586.88;5096190;28;20473;-70
2021/01/24 04:33:36;;;;;;;4.17;3.87;;;5.60;99.90;;;5.77;74.71;99587.75;5096343;28;20082;-70
2021/01/24 04:36:05;;;;;;;4.80;4.47;;;5.50;99.90;;;5.66;74.46;99572.94;5096250;28;20051;-70
2021/01/24 04:38:32;;;;;;;4.73;4.37;;;5.50;99.90;;;5.74;74.37;99590.41;5096179;28;20050;-70
2021/01/24 04:41:01;;;;;;;4.70;4.27;;;5.60;99.90;;;5.68;74.68;99593.03;5077900;28;20044;-70
2021/01/24 04:43:28;;;;;;;5.30;5.00;;;5.50;99.90;;;5.66;74.73;99601.78;5096032;28;20054;-71
2021/01/24 04:45:56;;;;;;;4.73;4.43;;;5.50;99.90;;;5.59;74.84;99595.72;5095949;28;20090;-70
2021/01/24 04:48:24;;;;;;;5.13;4.73;;;5.50;99.90;;;5.69;74.90;99601.78;5095995;28;20089;-70
2021/01/24 04:50:53;;;;;;;4.60;4.30;;;5.40;99.90;;;5.68;74.74;99606.16;5095929;28;20036;-70
2021/01/24 04:53:22;;;;;;;5.23;4.30;;;5.40;99.90;;;5.66;74.82;99594.81;5095971;28;20036;-71
2021/01/24 04:55:51;;;;;;;5.60;5.10;;;5.50;99.90;;;5.68;74.72;99595.66;5095824;28;20048;-70
2021/01/24 04:58:18;;;;;;;5.43;4.93;;;5.40;99.90;;;5.69;74.83;99602.63;5095981;28;20455;-70
2021/01/24 05:00:46;;;;;;;4.97;4.57;;;5.50;99.90;;;5.58;74.96;99612.31;5077724;28;20059;-71
2021/01/24 05:03:15;;;;;;;5.03;4.63;;;5.40;99.90;;;5.65;75.07;99614.06;5077745;28;20573;-70
2021/01/24 05:05:44;;;;;;;4.88;4.47;;;5.50;99.90;;;5.53;75.38;99580.03;5095682;28;20765;-71
2021/01/24 05:08:12;;;;;;;5.00;4.60;;;5.50;99.90;;;5.79;74.99;99606.13;5095505;28;20458;-70
2021/01/24 05:10:39;;;;;;;4.73;4.33;;;5.60;99.90;;;5.83;75.15;99613.06;5095856;28;20077;-70
2021/01/24 05:13:07;;;;;;;5.17;4.77;;;5.60;99.90;;;5.80;75.14;99606.09;5095676;28;20127;-70
2021/01/24 05:15:36;;;;;;;5.40;5.00;;;5.70;99.90;;;5.72;75.36;99607.88;5073820;28;20049;-70
2021/01/24 05:18:04;;;;;;;5.33;4.93;;;5.60;99.90;;;5.62;75.92;99600.94;5075225;28;20460;-70
2021/01/24 05:20:33;;;;;;;5.27;4.77;;;5.50;99.90;;;5.69;75.58;99610.50;5074990;28;20118;-71
2021/01/24 05:23:04;;;;;;;5.43;4.93;;;5.50;99.90;;;5.73;75.65;99612.25;5075103;28;20052;-70
2021/01/24 05:25:33;;;;;;;6.90;4.93;;;5.60;99.90;;;5.77;75.35;99613.97;5073698;28;20044;-70
2021/01/24 05:28:17;;;;;;;7.20;5.40;;;5.60;99.90;;;5.77;75.36;99619.22;5075170;28;20033;-70
2021/01/24 05:30:45;;;;;;;6.47;5.53;;;5.60;99.90;;;5.76;75.42;99612.25;5074826;28;20509;-70
2021/01/24 05:33:17;;;;;;;5.30;4.83;;;5.60;99.90;;;5.47;75.02;99572.19;5074922;28;20420;-70
2021/01/24 05:35:49;;;;;;;5.33;4.97;;;5.60;99.90;;;5.69;75.11;99631.50;5075152;28;20040;-70
2021/01/24 05:38:24;;;;;;;6.10;5.57;;;5.50;99.90;;;5.43;75.09;99560.84;5074896;28;20071;-71
2021/01/24 05:40:52;;;;;;;5.33;5.03;;;5.50;99.90;;;5.76;74.60;99637.59;5074660;28;20109;-71
2021/01/24 05:43:19;;;;;;;5.87;5.37;;;5.60;99.90;;;5.18;74.24;99514.66;5074744;28;20044;-70
2021/01/24 05:45:50;;;;;;;5.77;5.27;;;5.60;99.90;;;5.64;74.59;99620.16;5074531;28;20048;-70
2021/01/24 05:48:18;;;;;;;5.73;5.03;;;5.50;99.90;;;5.64;75.42;99629.78;5074697;28;20044;-70
2021/01/24 05:50:47;;;;;;;5.97;5.33;;;5.50;99.90;;;5.70;75.47;99640.25;5074564;28;20134;-70
2021/01/24 05:53:15;;;;;;;7.23;5.97;;;5.40;99.90;;;5.71;75.79;99639.38;5074547;28;20049;-70
2021/01/24 05:55:45;;;;;;;6.30;5.73;;;5.50;99.90;;;5.72;75.58;99648.97;5074566;28;20056;-71
2021/01/24 05:58:18;;;;;;;7.05;5.82;;;5.50;99.90;;;5.54;76.00;99655.16;5074391;28;20463;-70
2021/01/24 06:00:48;;;;;;;6.60;5.90;;;5.50;99.90;;;5.78;76.26;99652.44;5074456;28;20048;-70
2021/01/24 06:03:16;;;;;;;6.03;5.50;;;5.60;99.90;;;5.37;75.83;99567.84;5073155;28;20098;-70
2021/01/24 06:05:44;;;;;;;6.07;5.47;;;5.60;99.90;;;5.80;75.78;99637.59;5074552;28;20032;-70
2021/01/24 06:08:14;;;;;;;6.03;5.43;;;5.70;99.90;;;5.92;75.85;99645.41;5074259;28;20052;-70
2021/01/24 06:10:43;;;;;;;7.68;5.72;;;5.70;99.90;;;5.91;75.48;99646.28;5074081;28;20454;-70
2021/01/24 06:13:17;;;;;;;6.57;5.97;;;5.80;99.90;;;5.61;75.58;99603.59;5074370;28;20063;-70
2021/01/24 06:15:45;;;;;;;8.50;6.30;;;5.80;99.90;;;5.83;75.40;99648.06;5084351;28;20044;-70
2021/01/24 06:18:16;;;;;;;8.43;6.00;;;5.70;99.90;;;5.28;75.43;99558.28;5094268;28;20074;-71
2021/01/24 06:20:49;;;;;;;6.93;6.23;;;5.60;99.90;;;5.66;75.54;99654.25;5094329;28;20136;-71
2021/01/24 06:23:26;;;;;;;8.37;6.77;;;5.50;99.90;;;5.59;75.80;99648.19;5075900;28;20056;-70
2021/01/24 06:26:03;;;;;;;8.40;7.70;;;5.40;99.90;;;5.45;75.77;99655.22;5094003;28;20059;-70
2021/01/24 06:28:35;;;;;;;9.30;6.70;;;5.30;99.90;;;5.48;75.95;99665.69;5094083;28;20047;-70
2021/01/24 06:31:03;;;;;;;7.77;6.27;;;5.30;99.90;;;5.43;75.45;99662.22;5093934;28;20046;-71
2021/01/24 06:33:30;;;;;;;8.00;6.27;;;5.30;99.90;;;5.27;75.82;99671.00;5093904;28;20046;-71
2021/01/24 06:36:00;;;;;;;7.43;6.77;;;5.20;99.90;;;5.27;76.14;99669.25;5093417;28;20496;-71
2021/01/24 06:38:31;;;;;;;8.50;7.72;;;5.20;99.90;;;4.48;75.84;99561.16;5094102;28;20069;-71
2021/01/24 06:41:02;;;;;;;6.90;6.30;;;5.10;99.90;;;5.21;75.73;99677.13;5093799;28;20058;-71
2021/01/24 06:43:41;;;;;;;7.03;6.43;;;5.00;99.90;;;5.09;75.78;99676.28;5093918;28;20040;-71
2021/01/24 06:46:42;;;;;;;8.37;6.07;;;5.00;99.90;;;5.08;76.58;99680.66;5075433;28;20463;-71
2021/01/24 06:49:09;;;;;;;;;;;5.00;99.90;;;5.00;76.63;99678.91;5076048;28;20044;-71
2021/01/24 06:51:39;;;;;;;8.07;6.67;;;5.00;99.90;;;5.11;76.40;99692.88;5093636;28;20376;-71
2021/01/24 06:54:08;;;;;;;9.35;6.35;;;5.00;99.90;;;5.16;76.58;99688.50;5093668;28;20052;-72
2021/01/24 06:56:41;;;;;;;7.37;6.63;;;5.00;99.90;;;5.17;76.09;99693.72;5093468;28;20044;-71
2021/01/24 06:59:10;;;;;;;7.43;6.73;;;5.00;99.90;;;5.17;75.68;99706.81;5093517;28;20036;-71
2021/01/24 07:01:39;;;;;;;6.57;5.97;;;5.00;99.90;;;5.10;75.41;99704.22;5093424;28;20097;-71
2021/01/24 07:04:43;;;;;;;7.00;6.30;;;5.00;99.90;;;4.98;75.21;99699.00;5093364;28;20047;-71
2021/01/24 07:07:36;;;;;;;8.63;6.43;;;4.80;99.90;;;4.55;75.28;99709.47;5093371;28;20493;-71
2021/01/24 07:10:10;;;;;;;7.47;6.77;;;4.40;99.90;;;3.49;76.19;99606.38;5093185;28;20050;-71
2021/01/24 07:12:42;;;;;;;8.37;6.80;;;4.10;99.90;;;4.19;77.11;99714.66;5093333;28;20413;-71
2021/01/24 07:15:19;;;;;;;10.30;7.57;;;4.00;99.90;;;4.17;77.89;99718.13;5093222;28;20394;-71
2021/01/24 07:17:59;;;;;;;9.50;7.77;;;4.00;99.90;;;4.32;78.73;99736.47;5093379;28;20063;-71
2021/01/24 07:20:28;;;;;;;8.55;7.45;;;4.10;99.90;;;4.42;78.69;99725.16;5075147;28;20135;-71
2021/01/24 07:22:56;;;;;;;8.20;6.90;;;4.20;99.90;;;4.59;78.78;99726.94;5092931;28;20101;-71
2021/01/24 07:25:24;;;;;;;8.83;7.07;;;4.40;99.90;;;4.52;78.20;99722.56;5093026;28;20499;-71
2021/01/24 07:27:57;;;;;;;11.63;7.27;;;4.50;99.90;;;4.79;78.72;99739.16;5092929;28;20078;-71
2021/01/24 07:30:26;;;;;;;11.17;7.10;;;4.60;99.90;;;4.93;78.40;99733.06;5093013;28;20043;-71
2021/01/24 07:32:54;;;;;;;7.67;6.73;;;4.80;99.90;;;5.01;78.18;99727.81;5092960;28;20060;-71
2021/01/24 07:35:22;;;;;;;16.17;7.10;;;4.80;99.90;;;5.13;77.95;99725.19;5074944;28;20076;-71
2021/01/24 07:37:53;;;;;;;12.23;6.20;;;5.00;99.90;;;5.30;77.76;99737.38;5092918;28;20121;-71
2021/01/24 07:40:21;;;;;;;11.45;6.80;;;5.10;99.90;;;5.34;77.09;99738.28;5093506;28;20459;-71
2021/01/24 07:42:53;;;;;;;10.07;6.57;;;5.20;99.90;;;5.46;77.07;99740.84;5092998;28;20044;-71
2021/01/24 07:45:22;;;;;;;12.23;7.30;;;5.30;99.90;;;5.39;76.57;99736.50;5074807;28;20050;-71
2021/01/24 07:47:49;;;;;;;8.20;6.10;;;5.40;99.90;;;5.59;76.74;99752.19;5091978;28;20048;-71
2021/01/24 07:50:17;;;;;;;11.30;6.80;;;5.40;99.90;;;5.50;75.81;99729.47;5074696;28;20040;-71
2021/01/24 07:52:45;;;;;;;7.30;6.53;;;5.50;99.90;;;5.72;75.80;99762.66;5092734;28;20124;-71
2021/01/24 07:55:16;;;;;;;8.93;6.20;;;5.50;99.90;;;5.69;75.73;99754.78;5093010;28;20078;-71
2021/01/24 07:57:43;;;;;;;9.53;6.40;;;5.50;99.90;;;5.68;75.18;99750.41;5074687;28;20048;-71
2021/01/24 08:00:15;;;;;;;13.77;6.57;;;5.60;99.90;;;5.68;75.02;99755.66;5092612;28;20040;-71
2021/01/24 08:02:43;;;;;;;11.63;6.73;;;5.50;99.90;;;5.69;74.49;99762.63;5092924;28;20106;-71
2021/01/24 08:05:12;;;;;;;13.43;7.10;;;5.50;99.90;;;5.69;74.43;99765.25;5092696;28;20040;-71
2021/01/24 08:07:41;;;;;;;12.57;7.43;;;5.60;99.90;;;5.75;74.26;99774.88;5092428;28;20047;-71
2021/01/24 08:10:09;;;;;;;8.57;6.40;;;5.60;99.90;;;5.79;73.93;99766.97;5092412;28;20405;-71
2021/01/24 08:12:36;;;;;;;9.60;7.10;;;5.60;99.90;;;5.80;73.71;99774.00;5092500;28;20040;-71
2021/01/24 08:15:06;;;;;;;13.27;6.83;;;5.60;99.90;;;5.69;73.38;99754.78;5092122;28;20045;-71
2021/01/24 08:17:37;;;;;;;11.65;6.78;;;5.70;99.90;;;5.86;73.00;99788.88;5092483;28;20404;-70
2021/01/24 08:20:07;;;;;;;8.85;7.20;;;5.70;99.90;;;5.86;73.18;99786.25;5092314;28;20523;-71
2021/01/24 08:22:34;;;;;;;9.80;6.90;;;5.70;99.90;;;5.89;73.41;99796.72;5092309;28;20409;-70
2021/01/24 08:25:05;;;;;;;11.23;6.83;;;5.70;99.90;;;5.86;73.12;99791.50;5092420;28;20548;-70
2021/01/24 08:27:35;;;;;;;10.23;7.05;;;5.70;99.90;;;5.69;73.07;99801.13;5092430;28;20048;-71
2021/01/24 08:30:03;;;;;;;13.18;8.00;;;5.50;99.90;;;5.65;73.90;99795.03;5092313;28;20131;-69
2021/01/24 08:32:32;;;;;;;14.63;8.43;;;5.40;99.90;;;5.95;74.18;99797.59;5092235;28;20081;-70
2021/01/24 08:35:00;;;;;;;15.87;7.53;;;5.70;99.90;;;6.05;73.25;99799.31;5092388;28;20067;-68
2021/01/24 08:37:28;;;;;;;16.27;7.63;;;5.90;99.90;;;6.33;72.14;99787.78;5092408;28;20048;-69
2021/01/24 08:39:56;;;;;;;17.50;7.90;;;6.20;99.90;;;6.92;71.59;99805.84;5092414;28;20036;-68
2021/01/24 08:42:23;;;;;;;16.30;7.77;;;6.60;99.90;;;7.43;69.94;99812.44;5092232;28;20056;-74
2021/01/24 08:45:01;;;;;;;12.57;7.13;;;7.10;99.90;;;7.90;68.02;99815.47;5074047;28;20060;-74
2021/01/24 08:47:30;;;;;;;9.20;6.63;;;7.70;99.90;;;8.20;66.97;99825.69;5074159;28;20494;-73
2021/01/24 08:50:10;;;;;;;13.60;6.77;;;8.00;99.90;;;8.54;65.68;99810.34;5092321;28;20044;-74
2021/01/24 08:52:38;;;;;;;11.70;6.45;;;8.40;99.90;;;9.06;63.94;99815.72;5074212;28;20048;-73
2021/01/24 08:55:07;;;;;;;10.38;6.65;;;8.80;99.90;;;9.24;63.59;99802.25;5092137;28;20044;-73
2021/01/24 08:57:36;;;;;;;11.35;6.45;;;9.20;99.90;;;9.61;62.54;99823.63;5091936;28;20048;-71
2021/01/24 09:00:08;;;;;;;16.02;6.60;;;9.50;99.90;;;10.29;61.50;99838.22;5094185;28;20127;-72
2021/01/24 09:02:38;;;;;;;9.55;6.00;;;10.00;99.90;;;10.79;59.94;99846.84;5095829;28;20101;-71
2021/01/24 09:05:09;;;;;;;13.07;6.00;;;10.60;99.90;;;11.29;57.92;99844.81;5095637;28;20539;-73
2021/01/24 09:07:39;;;;;;;10.32;5.88;;;11.10;99.90;;;11.50;56.93;99849.59;5095540;28;20560;-72
2021/01/24 09:10:20;;;;;;;9.32;5.45;;;11.40;99.90;;;12.22;56.67;99845.06;5095512;28;20135;-71
2021/01/24 09:12:52;;;;;;;13.20;6.18;;;12.00;99.90;;;12.60;55.27;99836.06;5095383;28;20040;-71
2021/01/24 09:15:21;;;;;;;10.55;5.90;;;12.40;99.90;;;12.86;53.71;99843.22;5095472;28;20128;-74
2021/01/24 09:17:49;;;;;;;7.28;5.45;;;12.70;99.90;;;12.87;51.74;99851.16;5095362;28;20450;-74
2021/01/24 09:20:19;;;;;;;7.82;5.10;;;12.80;99.90;;;13.04;52.47;99856.84;5095257;28;20072;-72
2021/01/24 09:22:47;;;;;;;9.85;5.03;;;12.90;99.90;;;12.73;51.97;99850.69;5095161;28;20107;-75
2021/01/24 09:25:15;;;;;;;10.70;5.43;;;12.50;99.90;;;12.67;50.82;99854.41;5077250;28;20105;-70
2021/01/24 09:27:42;;;;;;;8.35;5.07;;;12.50;99.90;;;12.14;51.59;99854.13;5077064;28;20064;-71
2021/01/24 09:30:13;;;;;;;8.05;5.45;;;12.00;99.90;;;12.48;51.23;99850.53;5095032;28;20051;-71
2021/01/24 09:32:41;;;;;;;6.88;4.35;;;12.20;99.90;;;12.25;50.79;99854.75;5076945;28;20056;-72
2021/01/24 09:35:10;;;;;;;9.95;5.15;;;12.10;99.90;;;11.51;51.14;99854.00;5076834;28;20410;-70
2021/01/24 09:37:38;;;;;;;6.45;5.18;;;11.50;99.90;;;11.54;52.57;99854.78;5095323;28;20040;-72
2021/01/24 09:40:08;;;;;;;7.47;4.65;;;11.30;99.90;;;11.69;52.35;99859.72;5094993;28;20451;-69
2021/01/24 09:42:35;;;;;;;7.72;5.03;;;11.40;99.90;;;11.30;51.65;99855.41;5094925;28;20052;-69
2021/01/24 09:45:04;;;;;;;7.30;4.93;;;11.10;99.90;;;11.09;52.24;99855.88;5094839;28;20512;-68
2021/01/24 09:47:32;;;;;;;10.55;5.18;;;10.90;99.90;;;10.77;52.16;99858.38;5094508;28;20044;-70
2021/01/24 09:50:00;;;;;;;8.13;4.50;;;10.60;99.90;;;10.64;51.53;99857.78;5094840;28;20059;-71
2021/01/24 09:52:27;;;;;;;10.20;5.18;;;10.40;99.90;;;10.69;52.73;99862.94;5095197;28;20121;-69
2021/01/24 09:54:56;;;;;;;9.85;5.22;;;10.40;99.90;;;10.46;52.80;99855.50;5076618;28;20139;-70
2021/01/24 09:57:23;;;;;;;6.60;4.75;;;10.20;99.90;;;10.17;51.86;99854.31;5094631;28;20047;-70
2021/01/24 09:59:51;;;;;;;8.23;5.05;;;10.00;99.90;;;9.73;51.88;99771.50;5094267;28;20460;-70
2021/01/24 10:02:18;;;;;;;8.40;4.85;;;9.90;99.90;;;10.07;53.20;99855.34;5094319;28;20044;-70
2021/01/24 10:04:46;;;;;;;9.25;5.25;;;9.90;99.90;;;10.10;53.52;99863.25;5094344;28;20449;-70
2021/01/24 10:07:14;;;;;;;7.25;5.28;;;9.90;99.90;;;10.24;54.06;99864.72;5094307;28;20040;-69
2021/01/24 10:09:41;;;;;;;6.57;4.80;;;10.00;99.90;;;10.28;54.11;99836.50;5075982;28;20040;-68
2021/01/24 10:12:10;;;;;;;7.53;5.38;;;10.30;99.90;;;10.71;54.50;99874.34;5093279;28;20391;-68
2021/01/24 10:14:38;;;;;;;9.68;5.55;;;10.40;99.90;;;11.05;53.74;99867.47;5093752;28;20614;-68
2021/01/24 10:17:06;;;;;;;9.00;4.80;;;10.80;99.90;;;11.61;53.18;99866.97;5076206;28;20451;-70
2021/01/24 10:19:33;;;;;;;7.00;5.30;;;11.40;99.90;;;12.22;52.38;99862.75;5094074;28;20063;-71
2021/01/24 10:22:01;;;;;;;7.38;4.65;;;11.90;99.90;;;12.64;50.33;99872.16;5094051;28;20052;-71
2021/01/24 10:24:28;;;;;;;6.55;4.88;;;12.50;99.90;;;13.08;49.79;99871.78;5094089;28;20043;-70
2021/01/24 10:26:55;;;;;;;6.25;4.80;;;12.90;99.90;;;13.20;48.96;99865.22;5075366;28;20052;-70
2021/01/24 10:29:27;;;;;;;7.28;4.80;;;13.00;99.90;;;13.50;48.25;99873.06;5093449;28;20489;-69
2021/01/24 10:31:55;;;;;;;6.95;4.68;;;13.30;99.90;;;13.72;47.31;99880.34;5093948;28;20077;-70
2021/01/24 10:34:23;;;;;;;9.18;4.47;;;13.60;99.90;;;13.64;47.13;99877.06;5093765;28;20101;-72
2021/01/24 10:36:50;;;;;;;7.03;4.38;;;13.50;99.90;;;13.26;47.44;99873.84;5093849;28;20140;-69
2021/01/24 10:39:17;;;;;;;8.82;5.00;;;13.10;99.90;;;13.58;47.26;99880.78;5093458;28;20040;-70